Data for 11/30/2005

Time Sea-Level Adjusted Pressure Absolute Pressure Temperature Relative Humidity Dew Point   
(mb) (inHg) (mb) (inHg) (C) (F) (%) (C) (F)
00:05 1008 29.77 838 24.75 -4.9 23.2 95 -5.6 21.9
00:10 1008 29.77 838 24.75 -4.9 23.2 95 -5.6 21.9
00:15 1008 29.77 838 24.75 -4.9 23.2 95 -5.6 22
00:20 1008 29.77 838 24.75 -4.9 23.1 95 -5.7 21.8
00:25 1008 29.77 838 24.75 -5.1 22.9 94 -5.9 21.5
00:30 1008 29.77 838 24.75 -5.5 22.1 95 -6.1 20.9
00:35 1009 29.8 838 24.75 -5.7 21.7 96 -6.3 20.6
00:40 1009 29.8 838 24.75 -5.8 21.5 96 -6.4 20.5
00:45 1008 29.77 838 24.75 -5.8 21.6 96 -6.4 20.6
00:50 1008 29.77 838 24.75 -5.6 22 96 -6.2 20.9
00:55 1008 29.77 838 24.75 -5.2 22.6 94 -6.1 21.1
01:00 1009 29.8 838 24.75 -5.3 22.5 94 -6.1 21
01:05 1009 29.8 838 24.75 -5.1 22.9 93 -6.1 21.1
01:10 1008 29.77 838 24.75 -5.1 22.8 93 -6.1 20.9
01:15 1008 29.77 838 24.75 -5.2 22.6 92 -6.2 20.8
01:20 1009 29.8 838 24.75 -5 23 91 -6.2 20.8
01:25 1009 29.8 838 24.75 -5.2 22.6 91 -6.4 20.5
01:30 1009 29.8 838 24.75 -5.4 22.3 91 -6.6 20.1
01:35 1009 29.8 838 24.75 -5.5 22.2 91 -6.7 19.9
01:40 1009 29.8 838 24.75 -5.3 22.5 91 -6.5 20.2
01:45 1009 29.8 838 24.75 -5.4 22.2 91 -6.6 20
01:50 1009 29.8 838 24.75 -5.6 21.9 91 -6.8 19.7
01:55 1009 29.8 838 24.75 -5.7 21.8 92 -6.8 19.8
02:00 1009 29.8 838 24.75 -5.7 21.8 93 -6.7 19.9
02:05 1009 29.8 838 24.75 -5.6 21.9 92 -6.7 19.9
02:10 1009 29.8 838 24.75 -5.6 21.8 93 -6.6 20.1
02:15 1009 29.8 838 24.75 -6 21.3 94 -6.8 19.8
02:20 1009 29.8 838 24.75 -6 21.1 95 -6.8 19.8
02:25 1009 29.8 838 24.75 -6 21.3 94 -6.7 19.9
02:30 1009 29.8 839 24.78 -5.8 21.5 94 -6.7 20
02:35 1009 29.8 839 24.78 -6 21.3 95 -6.7 20
02:40 1009 29.8 839 24.78 -6 21.2 95 -6.7 19.9
02:45 1009 29.8 839 24.78 -6 21.3 95 -6.7 19.9
02:50 1009 29.8 839 24.78 -6 21.2 95 -6.7 20
02:55 1009 29.8 839 24.78 -5.8 21.5 95 -6.5 20.2
03:00 1009 29.8 838 24.75 -5.8 21.5 94 -6.7 19.9
03:05 1009 29.8 838 24.75 -6.1 21.1 94 -6.9 19.6
03:10 1009 29.8 839 24.78 -6.3 20.7 95 -7 19.4
03:15 1009 29.8 839 24.78 -6.6 20.2 95 -7.3 18.9
03:20 1009 29.8 839 24.78 -6.7 20 95 -7.4 18.7
03:25 1009 29.8 839 24.78 -6.6 20.1 95 -7.3 18.8
03:30 1009 29.8 839 24.78 -6.6 20.1 94 -7.4 18.7
03:35 1009 29.8 839 24.78 -6.6 20.1 94 -7.3 18.8
03:40 1009 29.8 839 24.78 -6.5 20.3 95 -7.2 19
03:45 1009 29.8 839 24.78 -6.4 20.4 95 -7.1 19.1
03:50 1009 29.8 839 24.78 -6.4 20.5 95 -7.1 19.2
03:55 1009 29.8 839 24.78 -6.4 20.5 95 -7.1 19.3
04:00 1009 29.8 839 24.78 -6.4 20.4 95 -7.2 19.1
04:05 1010 29.83 839 24.78 -6.4 20.5 95 -7 19.4
04:10 1010 29.83 839 24.78 -6.3 20.6 95 -7.1 19.3
04:15 1009 29.8 839 24.78 -6.4 20.5 94 -7.1 19.1
04:20 1009 29.8 839 24.78 -6.5 20.3 94 -7.2 19
04:25 1009 29.8 839 24.78 -6.6 20.2 95 -7.3 18.9
04:30 1009 29.8 839 24.78 -6.5 20.4 94 -7.2 19
04:35 1009 29.8 839 24.78 -6.5 20.3 94 -7.3 18.8
04:40 1009 29.8 839 24.78 -6.4 20.4 94 -7.2 19
04:45 1009 29.8 839 24.78 -6.2 20.8 93 -7.1 19.1
04:50 1009 29.8 839 24.78 -6.3 20.8 93 -7.2 19.1
04:55 1009 29.8 839 24.78 -6.2 20.8 93 -7.2 19.1
05:00 1010 29.83 839 24.78 -6.2 20.8 93 -7.1 19.2
05:05 1010 29.83 839 24.78 -6.1 21.1 93 -7.1 19.2
05:10 1010 29.83 839 24.78 -6.2 20.8 93 -7.2 19.1
05:15 1010 29.83 839 24.78 -6.3 20.7 93 -7.2 19.1
05:20 1010 29.83 839 24.78 -6.3 20.6 94 -7.2 19.1
05:25 1010 29.83 839 24.78 -6.2 20.9 95 -6.9 19.5
05:30 1010 29.83 839 24.78 -5.9 21.4 93 -6.8 19.7
05:35 1010 29.83 839 24.78 -5.9 21.4 92 -7 19.4
05:40 1010 29.83 839 24.78 -6.3 20.7 93 -7.2 19.1
05:45 1010 29.83 839 24.78 -6.5 20.4 94 -7.3 18.9
05:50 1010 29.83 839 24.78 -6.5 20.4 94 -7.2 19
05:55 1010 29.83 839 24.78 -6.5 20.3 94 -7.3 18.9
06:00 1010 29.83 839 24.78 -6.3 20.7 93 -7.2 19.1
06:05 1010 29.83 839 24.78 -6.2 20.8 93 -7.2 19.1
06:10 1010 29.83 839 24.78 -6.2 20.9 93 -7.2 19
06:15 1010 29.83 839 24.78 -6.2 20.8 94 -7.1 19.3
06:20 1010 29.83 839 24.78 -6.2 20.8 93 -7.1 19.2
06:25 1010 29.83 839 24.78 -6.1 21 93 -7 19.4
06:30 1010 29.83 839 24.78 -6.1 21 94 -7 19.5
06:35 1010 29.83 839 24.78 -6.2 20.9 94 -7 19.4
06:40 1010 29.83 839 24.78 -6.2 20.9 94 -7 19.4
06:45 1010 29.83 840 24.81 -6.1 21 93 -7 19.3
06:50 1010 29.83 840 24.81 -6.2 20.9 94 -7 19.4
06:55 1011 29.85 840 24.81 -6 21.2 94 -6.9 19.6
07:00 1011 29.85 840 24.81 -5.9 21.3 92 -7 19.4
07:05 1011 29.85 840 24.81 -6.1 21.1 92 -7.1 19.2
07:10 1011 29.85 840 24.81 -6.4 20.5 92 -7.4 18.6
07:15 1011 29.85 840 24.81 -6.5 20.2 93 -7.5 18.4
07:20 1011 29.85 840 24.81 -6.8 19.8 94 -7.6 18.4
07:25 1011 29.85 840 24.81 -7 19.4 95 -7.7 18.2
07:30 1011 29.85 841 24.83 -7 19.3 97 -7.5 18.5
07:35 1011 29.85 841 24.83 -7.1 19.3 97 -7.5 18.6
07:40 1011 29.85 841 24.83 -6.9 19.5 97 -7.3 18.8
07:45 1012 29.88 841 24.83 -6.9 19.5 97 -7.3 18.9
07:50 1012 29.88 841 24.83 -7 19.4 97 -7.3 18.8
07:55 1012 29.88 841 24.83 -7.1 19.3 97 -7.4 18.6
08:00 1012 29.88 841 24.83 -7.1 19.3 97 -7.5 18.6
08:05 1012 29.88 841 24.83 -7 19.3 97 -7.5 18.6
08:10 1012 29.88 841 24.83 -7.1 19.2 97 -7.5 18.4
08:15 1012 29.88 842 24.86 -7.2 19 97 -7.6 18.4
08:20 1012 29.88 842 24.86 -7.4 18.7 97 -7.8 17.9
08:25 1012 29.88 842 24.86 -7.7 18.2 97 -8 17.6
08:30 1013 29.91 842 24.86 -7.6 18.3 98 -7.9 17.9
08:35 1013 29.91 842 24.86 -7.3 18.9 97 -7.6 18.3
08:40 1013 29.91 842 24.86 -7.1 19.2 97 -7.6 18.4
08:45 1013 29.91 842 24.86 -7.1 19.1 96 -7.7 18.1
08:50 1013 29.91 842 24.86 -7.1 19.3 96 -7.7 18.2
08:55 1013 29.91 842 24.86 -7.1 19.3 95 -7.7 18.1
09:00 1013 29.91 842 24.86 -6.9 19.5 94 -7.7 18.1
09:05 1013 29.91 843 24.89 -7.1 19.3 92 -8.1 17.4
09:10 1013 29.91 843 24.89 -7.3 18.8 91 -8.5 16.7
09:15 1014 29.94 843 24.89 -7.5 18.4 91 -8.8 16.2
09:20 1014 29.94 843 24.89 -7.6 18.2 91 -8.9 15.9
09:25 1014 29.94 843 24.89 -7.8 17.9 91 -9.1 15.6
09:30 1014 29.94 843 24.89 -7.8 17.9 90 -9.3 15.3
09:35 1014 29.94 843 24.89 -7.9 17.8 89 -9.4 15.1
09:40 1014 29.94 843 24.89 -8 17.7 90 -9.4 15.1
09:45 1014 29.94 843 24.89 -7.9 17.8 89 -9.4 15.1
09:50 1014 29.94 844 24.92 -7.9 17.8 88 -9.5 14.9
09:55 1015 29.97 844 24.92 -7.9 17.7 86 -9.8 14.3
10:00 1015 29.97 844 24.92 -8.1 17.4 87 -10 14.1
10:05 1015 29.97 844 24.92 -8.2 17.2 88 -9.9 14.1
10:10 1015 29.97 844 24.92 -8.2 17.3 87 -10 14
10:15 1015 29.97 844 24.92 -7.9 17.7 87 -9.8 14.4
10:20 1015 29.97 844 24.92 -8 17.7 85 -10 14
10:25 1015 29.97 844 24.92 -8.1 17.5 86 -10 14
10:30 1015 29.97 844 24.92 -8.1 17.4 86 -10.1 13.8
10:35 1015 29.97 844 24.92 -8.3 17.1 86 -10.3 13.5
10:40 1015 29.97 845 24.95 -8 17.6 85 -10.1 13.9
10:45 1015 29.97 845 24.95 -7.7 18.2 84 -9.9 14.1
10:50 1016 30 845 24.95 -7.4 18.7 82 -9.9 14.1
10:55 1016 30 845 24.95 -7.4 18.8 82 -9.9 14.2
11:00 1016 30 845 24.95 -7.4 18.7 80 -10.2 13.7
11:05 1016 30 845 24.95 -7.5 18.5 80 -10.4 13.2
11:10 1016 30 845 24.95 -7.7 18.2 80 -10.5 13
11:15 1016 30 845 24.95 -7.8 18 80 -10.7 12.8
11:20 1016 30 845 24.95 -7.9 17.9 79 -10.9 12.4
11:25 1016 30 845 24.95 -7.9 17.7 78 -11.1 12.1
11:30 1016 30 845 24.95 -7.8 18 77 -11.1 12.1
11:35 1016 30 845 24.95 -7.8 18 77 -11.1 12.1
11:40 1016 30 845 24.95 -7.9 17.9 78 -11.1 12
11:45 1016 30 845 24.95 -7.7 18.1 77 -11.1 12
11:50 1016 30 845 24.95 -7.8 18.1 76 -11.3 11.6
11:55 1016 30 845 24.95 -7.7 18.2 75 -11.4 11.4
12:00 1016 30 845 24.95 -8 17.5 76 -11.6 11.2
12:05 1016 30 845 24.95 -8.1 17.5 76 -11.5 11.2
12:10 1016 30 845 24.95 -7.7 18.1 75 -11.5 11.4
12:15 1016 30 845 24.95 -7.6 18.4 73 -11.5 11.2
12:20 1016 30 845 24.95 -7.8 18.1 73 -11.7 10.9
12:25 1016 30 845 24.95 -7.9 17.7 74 -11.8 10.8
12:30 1016 30 845 24.95 -8 17.6 74 -11.9 10.6
12:35 1016 30 845 24.95 -8 17.7 74 -11.9 10.6
12:40 1016 30 845 24.95 -7.6 18.3 71 -12 10.4
12:45 1016 30 845 24.95 -7.8 17.9 73 -11.8 10.7
12:50 1016 30 845 24.95 -8.1 17.4 73 -12.2 10.1
12:55 1016 30 845 24.95 -8.5 16.8 75 -12.1 10.2
13:00 1016 30 845 24.95 -7.9 17.8 72 -12.1 10.3
13:05 1016 30 845 24.95 -7.3 18.9 69 -12.1 10.3
13:10 1016 30 845 24.95 -7.6 18.3 71 -12 10.3
13:15 1016 30 845 24.95 -7.9 17.8 72 -12.2 10.1
13:20 1016 30 845 24.95 -7.6 18.3 72 -11.9 10.5
13:25 1016 30 845 24.95 -8 17.7 73 -12 10.3
13:30 1016 30 845 24.95 -8.1 17.5 73 -12.1 10.3
13:35 1016 30 845 24.95 -7.7 18.1 71 -12.1 10.2
13:40 1016 30 845 24.95 -8.2 17.3 73 -12.1 10.2
13:45 1016 30 845 24.95 -8.6 16.6 75 -12.2 10.1
13:50 1016 30 845 24.95 -8.4 16.9 74 -12.3 9.9
13:55 1016 30 845 24.95 -8.3 17 74 -12.2 10.1
14:00 1016 30 845 24.95 -8.4 16.9 74 -12.2 10
14:05 1016 30 845 24.95 -8.5 16.8 74 -12.2 10
14:10 1016 30 845 24.95 -8.5 16.7 73 -12.5 9.4
14:15 1016 30 845 24.95 -8.1 17.5 72 -12.3 9.9
14:20 1016 30 845 24.95 -8.1 17.3 73 -12.2 10.1
14:25 1016 30 845 24.95 -7.8 18 72 -12 10.4
14:30 1016 30 845 24.95 -8 17.6 73 -12.1 10.2
14:35 1016 30 845 24.95 -8 17.6 73 -12 10.4
14:40 1016 30 845 24.95 -8.1 17.3 74 -12 10.4
14:45 1016 30 845 24.95 -8 17.5 74 -12 10.4
14:50 1016 30 845 24.95 -7.7 18.2 73 -11.7 11
14:55 1016 30 845 24.95 -7.5 18.5 74 -11.4 11.5
15:00 1016 30 845 24.95 -7.7 18.2 76 -11.2 11.8
15:05 1016 30 845 24.95 -7.4 18.7 75 -11.1 11.9
15:10 1016 30 845 24.95 -7.4 18.7 75 -11.2 11.9
15:15 1016 30 845 24.95 -7.3 18.8 74 -11.2 11.8
15:20 1016 30 845 24.95 -7.7 18.2 76 -11.2 11.9
15:25 1016 30 845 24.95 -8.1 17.4 78 -11.2 11.8
15:30 1016 30 845 24.95 -8.5 16.7 79 -11.4 11.4
15:35 1016 30 845 24.95 -8.5 16.7 79 -11.5 11.3
15:40 1016 30 845 24.95 -8.5 16.8 80 -11.4 11.6
15:45 1016 30 845 24.95 -8.4 16.9 81 -11.1 12
15:50 1016 30 845 24.95 -8.4 16.9 80 -11.3 11.7
15:55 1016 30 845 24.95 -8.5 16.8 81 -11.2 11.9
16:00 1016 30 845 24.95 -8.6 16.5 82 -11.2 11.9
16:05 1016 30 845 24.95 -8.7 16.4 82 -11.2 11.8
16:10 1016 30 845 24.95 -8.6 16.5 82 -11.1 12
16:15 1016 30 845 24.95 -8.6 16.5 81 -11.3 11.7
16:20 1016 30 845 24.95 -8.7 16.3 83 -11.2 11.9
16:25 1016 30 845 24.95 -8.8 16.2 83 -11.2 11.9
16:30 1016 30 845 24.95 -8.6 16.5 81 -11.3 11.6
16:35 1016 30 845 24.95 -8.9 16 82 -11.5 11.4
16:40 1016 30 845 24.95 -9.1 15.6 83 -11.5 11.2
16:45 1016 30 845 24.95 -9.4 15 83 -11.7 10.9
16:50 1016 30 845 24.95 -9.6 14.7 84 -11.9 10.6
16:55 1016 30 845 24.95 -9.6 14.6 85 -11.6 11
17:00 1016 30 845 24.95 -9.7 14.5 86 -11.7 11
17:05 1016 30 845 24.95 -9.8 14.3 86 -11.8 10.8
17:10 1016 30 845 24.95 -9.9 14.3 86 -11.8 10.8
17:15 1016 30 845 24.95 -9.8 14.4 86 -11.7 11
17:20 1016 30 845 24.95 -9.7 14.6 85 -11.7 10.9
17:25 1016 30 845 24.95 -9.7 14.5 87 -11.5 11.3
17:30 1016 30 845 24.95 -9.7 14.5 87 -11.5 11.2
17:35 1016 30 845 24.95 -9.6 14.7 86 -11.5 11.2
17:40 1016 30 845 24.95 -9.7 14.5 86 -11.6 11.1
17:45 1016 30 845 24.95 -9.8 14.4 86 -11.7 11
17:50 1016 30 845 24.95 -9.6 14.7 86 -11.6 11.1
17:55 1016 30 845 24.95 -9.6 14.7 85 -11.6 11.1
18:00 1016 30 845 24.95 -9.5 15 85 -11.6 11.1
18:05 1016 30 845 24.95 -9.3 15.2 85 -11.4 11.4
18:10 1016 30 845 24.95 -9.1 15.5 82 -11.7 11
18:15 1016 30 845 24.95 -9 15.7 82 -11.6 11.1
18:20 1016 30 845 24.95 -8.9 16 80 -11.7 10.9
18:25 1016 30 845 24.95 -8.8 16.2 80 -11.7 11
18:30 1016 30 845 24.95 -8.8 16.1 81 -11.6 11.2
18:35 1016 30 845 24.95 -8.8 16.2 81 -11.5 11.3
18:40 1015 29.97 845 24.95 -8.4 16.8 78 -11.6 11.1
18:45 1015 29.97 845 24.95 -8.3 17 78 -11.5 11.3
18:50 1015 29.97 845 24.95 -8.4 16.9 79 -11.5 11.4
18:55 1015 29.97 845 24.95 -7.6 18.3 72 -11.8 10.8
19:00 1015 29.97 845 24.95 -6.8 19.8 71 -11.2 11.8
19:05 1015 29.97 845 24.95 -6.6 20 68 -11.6 11.2
19:10 1015 29.97 845 24.95 -6.4 20.5 67 -11.5 11.3
19:15 1015 29.97 845 24.95 -5.7 21.7 63 -11.6 11.1
19:20 1015 29.97 845 24.95 -4.9 23.1 61 -11.3 11.6
19:25 1015 29.97 845 24.95 -4.9 23.2 59 -11.6 11
19:30 1015 29.97 845 24.95 -4.7 23.5 59 -11.5 11.3
19:35 1015 29.97 845 24.95 -4.8 23.4 62 -11.1 12.1
19:40 1015 29.97 845 24.95 -5 23 65 -10.6 12.9
19:45 1015 29.97 845 24.95 -5.6 22 68 -10.7 12.8
19:50 1015 29.97 845 24.95 -5.9 21.4 65 -11.5 11.3
19:55 1015 29.97 845 24.95 -5.5 22 60 -12 10.3
20:00 1015 29.97 845 24.95 -4.9 23.2 56 -12.3 9.9
20:05 1015 29.97 845 24.95 -4.5 23.8 55 -12.2 10.1
20:10 1015 29.97 845 24.95 -4.5 23.9 56 -12 10.4
20:15 1015 29.97 845 24.95 -4.6 23.8 58 -11.7 11
20:20 1016 30 845 24.95 -4.6 23.7 58 -11.6 11.1
20:25 1016 30 845 24.95 -4.6 23.7 59 -11.5 11.4
20:30 1016 30 845 24.95 -4.8 23.5 60 -11.3 11.7
20:35 1016 30 845 24.95 -4.8 23.3 60 -11.5 11.4
20:40 1016 30 845 24.95 -5 23 59 -11.9 10.6
20:45 1016 30 845 24.95 -5.2 22.7 59 -12.1 10.3
20:50 1016 30 845 24.95 -5.2 22.6 57 -12.4 9.7
20:55 1016 30 845 24.95 -5.3 22.5 58 -12.2 10
21:00 1016 30 845 24.95 -5.3 22.5 58 -12.4 9.7
21:05 1016 30 845 24.95 -5.3 22.5 57 -12.4 9.6
21:10 1016 30 845 24.95 -5.3 22.5 57 -12.6 9.3
21:15 1016 30 845 24.95 -5.4 22.3 57 -12.6 9.3
21:20 1016 30 845 24.95 -5.5 22.1 57 -12.6 9.3
21:25 1016 30 845 24.95 -5.5 22.1 57 -12.7 9.1
21:30 1016 30 845 24.95 -5.4 22.3 57 -12.7 9.1
21:35 1015 29.97 845 24.95 -5.3 22.4 56 -12.8 9
21:40 1015 29.97 845 24.95 -5.2 22.7 55 -12.9 8.8
21:45 1015 29.97 845 24.95 -5.3 22.5 57 -12.5 9.5
21:50 1015 29.97 845 24.95 -5.5 22.1 58 -12.5 9.4
21:55 1016 30 845 24.95 -5.5 22 58 -12.6 9.3
22:00 1016 30 845 24.95 -5.5 22.1 59 -12.3 9.8
22:05 1016 30 845 24.95 -5.6 21.9 59 -12.3 9.8
22:10 1016 30 845 24.95 -5.7 21.7 59 -12.5 9.5
22:15 1016 30 845 24.95 -5.8 21.6 59 -12.6 9.2
22:20 1016 30 845 24.95 -6.1 21.1 59 -12.7 9.1
22:25 1015 29.97 845 24.95 -6.1 21.1 59 -12.9 8.8
22:30 1015 29.97 845 24.95 -6.1 21 59 -12.8 8.9
22:35 1015 29.97 845 24.95 -6.3 20.7 59 -13 8.7
22:40 1015 29.97 845 24.95 -6.5 20.2 61 -12.8 9
22:45 1015 29.97 845 24.95 -6.9 19.6 62 -13 8.6
22:50 1015 29.97 845 24.95 -7 19.4 60 -13.6 7.5
22:55 1015 29.97 845 24.95 -7 19.3 60 -13.7 7.4
23:00 1015 29.97 845 24.95 -6.3 20.7 57 -13.4 7.9
23:05 1015 29.97 845 24.95 -5.7 21.8 57 -12.9 8.8
23:10 1015 29.97 845 24.95 -6 21.3 58 -13 8.6
23:15 1015 29.97 845 24.95 -6.1 21 56 -13.6 7.6
23:20 1015 29.97 845 24.95 -5.9 21.4 55 -13.5 7.8
23:25 1015 29.97 845 24.95 -6 21.3 55 -13.6 7.5
23:30 1016 30 845 24.95 -6 21.3 57 -13.3 8.1
23:35 1016 30 845 24.95 -6.3 20.7 56 -13.6 7.5
23:40 1016 30 845 24.95 -6.3 20.7 57 -13.5 7.8
23:45 1016 30 845 24.95 -6.9 19.6 60 -13.5 7.8
23:50 1015 29.97 845 24.95 -6.9 19.5 60 -13.5 7.7
23:55 1015 29.97 845 24.95 -6.8 19.9 58 -13.6 7.5
24:00 1015 29.97 845 24.95 -6.7 19.9 59 -13.5 7.7